Time;durP1;ratioP1;P1;durP2;ratioP2;P2;SDS_P1;SDS_P2;PMS_P1;PMS_P2;Temp;Humidity;BMP_temperature;BMP_pressure;BME280_temperature;BME280_humidity;BME280_pressure;Samples;Min_cycle;Max_cycle;Signal;HPM_P1;HPM_P2
2021/03/11 00:01:12;;;;;;;76.93;28.90;;;;;;;-9.32;73.30;101074.91;1786937;80;21113;-70
2021/03/11 00:03:40;;;;;;;82.20;27.80;;;;;;;-9.35;73.35;101079.45;1757900;80;21203;-70
2021/03/11 00:06:08;;;;;;;64.87;26.23;;;;;;;-9.35;73.30;101076.02;1724847;83;21215;-69
2021/03/11 00:08:36;;;;;;;73.13;30.90;;;;;;;-9.37;73.26;101080.16;1724987;83;21188;-69
2021/03/11 00:11:04;;;;;;;65.20;27.93;;;;;;;-9.38;73.30;101080.95;1724867;83;21376;-69
2021/03/11 00:13:33;;;;;;;73.37;29.13;;;;;;;-9.39;73.45;101077.91;1724917;83;21193;-69
2021/03/11 00:16:01;;;;;;;77.00;28.97;;;;;;;-9.39;73.59;101076.63;1724807;83;21195;-69
2021/03/11 00:18:29;;;;;;;79.73;30.07;;;;;;;-9.40;73.63;101078.71;1716242;83;21172;-70
2021/03/11 00:20:58;;;;;;;70.90;29.43;;;;;;;-9.41;73.63;101082.03;1707509;82;21210;-71
2021/03/11 00:23:28;;;;;;;80.22;31.77;;;;;;;-9.42;73.75;101076.46;1701995;84;23636;-70
2021/03/11 00:25:55;;;;;;;77.63;31.60;;;;;;;-9.42;73.75;101075.19;1701726;84;21235;-71
2021/03/11 00:28:24;;;;;;;89.97;32.83;;;;;;;-9.42;73.87;101079.02;1702025;84;21563;-70
2021/03/11 00:30:51;;;;;;;89.90;34.87;;;;;;;-9.43;74.12;101069.58;1683338;84;21211;-68
2021/03/11 00:33:19;;;;;;;80.10;28.90;;;;;;;-9.44;74.33;101072.94;1673426;85;21252;-68
2021/03/11 00:35:47;;;;;;;91.87;34.50;;;;;;;-9.43;74.43;101067.94;1673564;85;21460;-66
2021/03/11 00:38:15;;;;;;;93.47;34.10;;;;;;;-9.42;74.56;101064.98;1648299;82;21514;-62
2021/03/11 00:40:43;;;;;;;76.13;30.50;;;;;;;-9.41;74.69;101073.11;1632950;87;21253;-64
2021/03/11 00:43:14;;;;;;;63.13;24.13;;;;;;;-9.41;74.79;101069.28;1632945;87;21192;-63
2021/03/11 00:45:46;;;;;;;70.07;31.23;;;;;;;-9.38;74.91;101065.66;1633281;87;21210;-62
2021/03/11 00:48:11;;;;;;;76.37;29.20;;;;;;;-9.36;75.07;101071.70;1632902;87;21364;-63
2021/03/11 00:50:41;;;;;;;72.47;28.90;;;;;;;-9.37;75.28;101068.67;1639965;86;21265;-64
2021/03/11 00:53:10;;;;;;;82.37;32.13;;;;;;;-9.34;75.42;101070.11;1643550;81;21267;-68
2021/03/11 00:55:40;;;;;;;80.67;31.50;;;;;;;-9.31;75.32;101057.56;1628363;88;21215;-69
2021/03/11 00:58:08;;;;;;;80.80;30.43;;;;;;;-9.31;75.15;101063.53;1628366;88;21827;-69
2021/03/11 01:00:38;;;;;;;78.67;31.27;;;;;;;-9.31;75.01;101060.11;1628380;88;21227;-69
2021/03/11 01:03:38;;;;;;;82.67;28.43;;;;;;;-9.25;74.79;101057.89;1887968;75;26841;-68
2021/03/11 01:06:05;;;;;;;80.20;30.73;;;;;;;-9.31;74.78;101052.05;1821044;78;21138;-68
2021/03/11 01:08:35;;;;;;;68.30;28.60;;;;;;;-9.34;74.77;101044.61;1867999;75;22308;-64
2021/03/11 01:11:04;;;;;;;54.00;22.17;;;;;;;-9.36;74.69;101046.19;1877538;76;21721;-66
2021/03/11 01:13:32;;;;;;;70.30;27.57;;;;;;;-9.39;74.74;101046.02;1873056;75;21261;-62
2021/03/11 01:16:01;;;;;;;84.70;31.90;;;;;;;-9.41;74.77;101041.22;1861020;76;21185;-64
2021/03/11 01:18:29;;;;;;;80.90;31.27;;;;;;;-9.42;74.94;101040.75;1877767;76;21140;-64
2021/03/11 01:20:56;;;;;;;81.37;31.87;;;;;;;-9.46;74.95;101035.86;1877740;76;22315;-65
2021/03/11 01:23:24;;;;;;;79.37;30.27;;;;;;;-9.51;74.86;101039.41;1849579;74;21125;-69
2021/03/11 01:25:52;;;;;;;81.47;32.10;;;;;;;-9.54;75.00;101035.42;1833085;78;21497;-70
2021/03/11 01:28:20;;;;;;;86.73;32.17;;;;;;;-9.56;74.94;101038.67;1836121;78;21122;-67
2021/03/11 01:30:47;;;;;;;90.13;33.07;;;;;;;-9.59;75.06;101045.76;1841552;78;21043;-70
2021/03/11 01:33:15;;;;;;;73.67;29.57;;;;;;;-9.60;75.08;101038.01;1822662;78;21643;-67
2021/03/11 01:35:44;;;;;;;82.27;32.17;;;;;;;-9.62;75.07;101040.45;1819672;78;21142;-65
2021/03/11 01:38:12;;;;;;;73.30;32.17;;;;;;;-9.62;75.24;101036.63;1770817;75;22149;-64
2021/03/11 01:40:39;;;;;;;80.27;32.87;;;;;;;-9.62;75.31;101035.36;1805184;79;21138;-64
2021/03/11 01:43:07;;;;;;;74.97;29.40;;;;;;;-9.63;75.26;101036.16;1796270;79;21637;-63
2021/03/11 01:45:34;;;;;;;80.37;30.27;;;;;;;-9.65;75.33;101030.09;1799288;78;21350;-62
2021/03/11 01:48:05;;;;;;;64.97;28.47;;;;;;;-9.67;75.32;101039.31;1803051;79;21172;-63
2021/03/11 01:50:32;;;;;;;70.52;28.55;;;;;;;-9.71;75.39;101037.00;1807781;78;21222;-63
2021/03/11 01:53:00;;;;;;;45.33;19.67;;;;;;;-9.75;75.34;101043.10;1797231;75;21192;-68
2021/03/11 01:55:30;;;;;;;74.40;30.00;;;;;;;-9.76;75.37;101046.42;1797034;78;21156;-67
2021/03/11 01:57:57;;;;;;;;;;;;;;;-9.78;75.35;101050.55;1780867;78;21267;-69
2021/03/11 02:00:26;;;;;;;61.87;22.27;;;;;;;-9.79;75.36;101051.35;1806009;79;20559;-68
2021/03/11 02:02:54;;;;;;;69.10;26.37;;;;;;;-9.80;75.55;101052.12;1795233;79;21315;-69
2021/03/11 02:05:23;;;;;;;68.77;28.33;;;;;;;-9.81;75.67;101046.55;1793612;79;21153;-68
2021/03/11 02:07:52;;;;;;;65.97;26.82;;;;;;;-9.81;75.82;101055.47;1784583;77;21668;-63
2021/03/11 02:10:23;;;;;;;66.30;26.90;;;;;;;-9.81;75.94;101049.97;1810574;79;21874;-63
2021/03/11 02:13:43;;;;;;;73.10;28.27;;;;;;;-9.80;75.94;101052.12;1801398;78;21134;-65
2021/03/11 02:16:36;;;;;;;57.73;23.13;;;;;;;-9.81;75.92;101052.92;1798558;78;21261;-62
2021/03/11 02:20:02;;;;;;;58.47;21.93;;;;;;;-9.82;75.83;101058.80;1781386;80;21725;-63
2021/03/11 02:23:02;;;;;;;70.60;25.83;;;;;;;-9.90;75.88;101051.10;1787570;77;21271;-71
2021/03/11 02:25:39;;;;;;;;;;;;;;;-9.83;76.10;101067.24;1733875;80;21375;-69
2021/03/11 02:28:27;;;;;;;66.17;25.93;;;;;;;-9.84;76.14;101067.64;1732873;81;20300;-69
2021/03/11 02:30:57;;;;;;;68.73;26.10;;;;;;;-9.88;76.08;101062.27;1782710;77;21213;-68
2021/03/11 02:33:27;;;;;;;70.50;26.37;;;;;;;-9.92;75.97;101065.89;1814367;77;21944;-69
2021/03/11 02:35:55;;;;;;;66.20;26.27;;;;;;;-9.98;75.95;101068.09;1828311;76;21532;-69
2021/03/11 02:38:23;;;;;;;77.83;27.50;;;;;;;-10.02;75.94;101067.41;1799898;77;21641;-63
2021/03/11 02:40:51;;;;;;;71.90;28.37;;;;;;;-10.05;75.96;101061.23;1805977;77;21153;-63
2021/03/11 02:43:19;;;;;;;77.97;29.60;;;;;;;-10.06;76.07;101063.31;1813823;78;21664;-63
2021/03/11 02:45:46;;;;;;;78.77;29.70;;;;;;;-10.08;76.21;101060.66;1805230;78;21166;-62
2021/03/11 02:48:14;;;;;;;80.63;30.83;;;;;;;-10.08;76.31;101063.20;1805738;77;21212;-64
2021/03/11 02:50:42;;;;;;;80.40;30.20;;;;;;;-10.09;76.36;101062.73;1812831;77;22082;-64
2021/03/11 02:53:11;;;;;;;76.17;30.03;;;;;;;-10.06;76.32;101064.19;1798155;75;21182;-71
2021/03/11 02:55:41;;;;;;;86.42;31.70;;;;;;;-10.09;76.38;101063.14;1747846;79;21233;-72
2021/03/11 02:58:11;;;;;;;73.50;29.48;;;;;;;-10.09;76.39;101064.02;1781725;77;28310;-70
2021/03/11 03:00:42;;;;;;;65.95;25.80;;;;;;;-10.11;76.47;101063.03;1770291;79;21233;-71
2021/03/11 03:03:12;;;;;;;56.83;23.73;;;;;;;-10.10;76.44;101062.63;1771333;79;22577;-70
2021/03/11 03:05:39;;;;;;;67.60;26.67;;;;;;;-10.10;76.50;101061.36;1804592;78;21290;-70
2021/03/11 03:08:08;;;;;;;78.67;31.13;;;;;;;-10.14;76.45;101059.03;1810806;76;21585;-65
2021/03/11 03:10:37;;;;;;;80.50;29.17;;;;;;;-10.15;76.51;101057.26;1818899;77;21109;-64
2021/03/11 03:13:16;;;;;;;96.53;34.03;;;;;;;-10.17;76.51;101052.46;1816213;77;21334;-64
2021/03/11 03:15:44;;;;;;;94.90;33.53;;;;;;;-10.16;76.57;101056.78;1814429;77;21157;-63
2021/03/11 03:18:13;;;;;;;83.93;33.37;;;;;;;-10.17;76.61;101055.01;1816624;77;21685;-63
2021/03/11 03:20:42;;;;;;;87.20;33.80;;;;;;;-10.16;76.66;101058.06;1819637;77;21439;-64
2021/03/11 03:23:10;;;;;;;82.90;33.43;;;;;;;-10.16;76.68;101060.61;1827498;77;21281;-62
2021/03/11 03:25:39;;;;;;;88.93;32.40;;;;;;;-10.15;76.87;101059.80;1815154;77;21630;-63
2021/03/11 03:28:07;;;;;;;84.80;34.33;;;;;;;-10.18;76.88;101057.95;1809316;77;21253;-63
2021/03/11 03:30:35;;;;;;;79.23;32.97;;;;;;;-10.20;76.70;101054.83;1765358;78;21231;-63
2021/03/11 03:33:03;;;;;;;79.23;33.10;;;;;;;-10.25;76.58;101060.05;1810929;77;21227;-63
2021/03/11 03:35:31;;;;;;;77.83;31.67;;;;;;;-10.29;76.72;101054.30;1814006;77;21570;-63
2021/03/11 03:38:00;;;;;;;80.13;32.60;;;;;;;-10.32;76.75;101057.95;1818128;77;21167;-62
2021/03/11 03:40:28;;;;;;;83.37;34.23;;;;;;;-10.35;76.76;101058.24;1812920;77;21634;-63
2021/03/11 03:43:12;;;;;;;81.57;32.30;;;;;;;-10.38;76.68;101055.48;1809302;78;21217;-64
2021/03/11 03:45:44;;;;;;;79.80;35.27;;;;;;;-10.41;76.72;101064.22;1800520;78;21230;-65
2021/03/11 03:48:16;;;;;;;84.33;32.83;;;;;;;-10.47;76.88;101063.83;1821121;77;21172;-64
2021/03/11 03:50:47;;;;;;;84.43;34.37;;;;;;;-10.51;76.94;101063.17;1810330;77;21231;-63
2021/03/11 03:53:21;;;;;;;81.75;33.05;;;;;;;-10.56;76.96;101060.70;1815921;77;22005;-64
2021/03/11 03:55:56;;;;;;;84.57;32.00;;;;;;;-10.58;77.05;101061.91;1780664;78;21184;-64
2021/03/11 03:58:26;;;;;;;76.67;29.40;;;;;;;-10.59;77.11;101068.17;1813976;77;21179;-64
2021/03/11 04:00:56;;;;;;;60.45;25.17;;;;;;;-10.60;77.20;101065.15;1809077;77;21167;-64
2021/03/11 04:03:23;;;;;;;73.00;27.60;;;;;;;-10.61;77.20;101060.82;1813198;77;21143;-65
2021/03/11 04:05:55;;;;;;;75.13;28.37;;;;;;;-10.62;77.27;101062.89;1814237;77;21214;-64
2021/03/11 04:08:24;;;;;;;78.20;30.83;;;;;;;-10.63;77.32;101058.56;1788014;78;21217;-63
2021/03/11 04:10:51;;;;;;;124.80;43.17;;;;;;;-10.62;77.30;101064.17;1821069;77;21272;-64
2021/03/11 04:13:19;;;;;;;101.73;36.10;;;;;;;-10.63;77.31;101060.72;1820887;77;21238;-63
2021/03/11 04:15:48;;;;;;;110.90;45.77;;;;;;;-10.65;77.28;101066.50;1833202;77;21174;-63
2021/03/11 04:18:17;;;;;;;113.77;41.70;;;;;;;-10.67;77.26;101065.52;1820303;77;21375;-63
2021/03/11 04:20:46;;;;;;;72.87;31.23;;;;;;;-10.67;77.23;101065.52;1818731;77;21223;-63
2021/03/11 04:23:14;;;;;;;75.83;29.53;;;;;;;-10.68;77.20;101068.86;1823677;77;21127;-64
2021/03/11 04:25:43;;;;;;;73.23;29.87;;;;;;;-10.67;77.39;101071.88;1834019;77;21167;-63
2021/03/11 04:28:10;;;;;;;65.10;27.47;;;;;;;-10.67;77.52;101070.61;1815725;77;21183;-64
2021/03/11 04:30:39;;;;;;;72.63;28.63;;;;;;;-10.66;77.45;101073.66;1826556;77;21170;-64
2021/03/11 04:33:06;;;;;;;70.00;27.63;;;;;;;-10.65;77.44;101077.95;1791889;77;21151;-64
2021/03/11 04:35:35;;;;;;;68.87;27.13;;;;;;;-10.66;77.45;101082.57;1813555;77;21740;-64
2021/03/11 04:38:04;;;;;;;67.97;25.43;;;;;;;-10.65;77.54;101086.49;1774856;78;21171;-72
2021/03/11 04:40:35;;;;;;;67.70;27.93;;;;;;;-10.62;77.56;101079.44;1752345;80;21190;-71
2021/03/11 04:43:02;;;;;;;73.63;29.73;;;;;;;-10.58;77.50;101086.46;1748752;79;21771;-72
2021/03/11 04:45:31;;;;;;;65.43;26.03;;;;;;;-10.56;77.51;101087.44;1741215;80;21685;-70
2021/03/11 04:48:00;;;;;;;64.03;28.00;;;;;;;-10.55;77.46;101084.13;1773623;80;21218;-71
2021/03/11 04:50:30;;;;;;;68.70;27.53;;;;;;;-10.51;77.55;101080.09;1778632;79;21198;-71
2021/03/11 04:52:58;;;;;;;64.47;28.80;;;;;;;-10.47;77.52;101080.78;1760568;79;21188;-63
2021/03/11 04:55:26;;;;;;;74.03;28.53;;;;;;;-10.42;77.53;101079.02;1841815;77;21261;-65
2021/03/11 04:57:53;;;;;;;76.30;31.87;;;;;;;-10.38;77.51;101081.35;1852880;76;21210;-65
2021/03/11 05:00:22;;;;;;;85.67;35.20;;;;;;;-10.37;77.60;101075.09;1827098;77;21135;-64
2021/03/11 05:02:50;;;;;;;93.00;36.90;;;;;;;-10.27;77.63;101088.36;1830657;77;21217;-68
2021/03/11 05:05:37;;;;;;;88.60;36.00;;;;;;;-10.18;77.74;101083.43;1840623;77;21150;-65
2021/03/11 05:08:06;;;;;;;90.63;37.33;;;;;;;-10.10;77.75;101086.84;1840766;75;21626;-72
2021/03/11 05:10:33;;;;;;;97.30;37.27;;;;;;;-9.99;77.85;101092.20;1841472;77;23184;-72
2021/03/11 05:13:01;;;;;;;88.90;36.93;;;;;;;-9.89;77.87;101098.72;1845246;77;21265;-71
2021/03/11 05:15:29;;;;;;;79.90;29.90;;;;;;;-9.75;77.87;101096.23;1847327;75;21148;-74
2021/03/11 05:17:57;;;;;;;130.30;44.80;;;;;;;-9.20;78.48;101099.88;1845235;76;21190;-76
2021/03/11 05:20:25;;;;;;;136.50;44.60;;;;;;;-8.38;78.56;101095.46;1843400;76;21312;-76
2021/03/11 05:22:53;;;;;;;123.83;46.90;;;;;;;-7.52;77.10;101101.27;1831257;75;21195;-64
2021/03/11 05:25:23;;;;;;;125.92;44.93;;;;;;;-6.69;76.26;101090.01;1817890;77;21184;-64
2021/03/11 05:27:51;;;;;;;119.90;42.93;;;;;;;-5.76;76.68;101096.86;1821969;77;21246;-65
2021/03/11 05:30:20;;;;;;;113.77;44.70;;;;;;;-4.76;75.94;101091.20;1825654;77;21231;-65
2021/03/11 05:32:48;;;;;;;119.77;47.45;;;;;;;-3.88;73.10;101093.77;1833463;77;22299;-63
2021/03/11 05:35:16;;;;;;;133.93;51.50;;;;;;;-3.00;70.45;101086.53;1824805;77;21178;-63
2021/03/11 05:37:44;;;;;;;125.20;49.75;;;;;;;-2.19;67.90;101091.67;1820045;76;21308;-74
2021/03/11 05:40:13;;;;;;;122.87;50.35;;;;;;;-1.42;65.54;101091.30;1805544;78;21206;-75
2021/03/11 05:42:44;;;;;;;127.47;51.90;;;;;;;-0.68;62.80;101092.75;1778484;78;21228;-75
2021/03/11 05:45:12;;;;;;;120.00;51.37;;;;;;;0.07;59.99;101097.48;1786697;79;21366;-75
2021/03/11 05:47:44;;;;;;;107.60;45.58;;;;;;;1.41;54.21;101095.63;1783405;79;21273;-78
2021/03/11 05:50:13;;;;;;;145.05;49.15;;;;;;;1.41;54.21;101095.63;1789114;79;21165;-79
2021/03/11 05:52:41;;;;;;;88.52;38.92;;;;;;;2.00;52.85;101096.47;1790573;75;21305;-65
2021/03/11 05:55:10;;;;;;;88.07;38.40;;;;;;;2.53;50.82;101096.25;1735580;80;21392;-65
2021/03/11 05:57:41;;;;;;;70.15;31.00;;;;;;;2.89;48.28;101091.00;1751737;79;21590;-66
2021/03/11 06:00:15;;;;;;;73.85;32.80;;;;;;;3.38;45.76;101092.72;1742255;80;21261;-64
2021/03/11 06:02:44;;;;;;;81.90;33.38;;;;;;;3.70;43.62;101098.60;1747948;80;21586;-64
2021/03/11 06:05:15;;;;;;;63.30;28.10;;;;;;;3.92;42.95;101100.48;1753857;80;21278;-63
2021/03/11 06:07:44;;;;;;;62.55;29.15;;;;;;;4.12;41.55;101104.95;1756517;77;21265;-80
2021/03/11 06:10:14;;;;;;;53.52;25.70;;;;;;;4.42;40.79;101100.30;1773542;77;21397;-81
2021/03/11 06:12:44;;;;;;;49.67;21.40;;;;;;;4.71;39.04;101097.76;1802365;77;21136;-82
2021/03/11 06:15:24;;;;;;;31.95;17.50;;;;;;;5.08;37.06;101108.70;1760392;78;21605;-80
2021/03/11 06:17:52;;;;;;;32.15;17.62;;;;;;;5.17;35.57;101099.58;1748254;79;21188;-80
2021/03/11 06:20:20;;;;;;;33.65;17.23;;;;;;;5.19;35.14;101110.90;1745544;80;21158;-81
2021/03/11 06:22:48;;;;;;;38.67;17.12;;;;;;;5.08;33.19;101103.48;1777461;75;21875;-65
2021/03/11 06:25:16;;;;;;;56.55;18.32;;;;;;;4.92;33.11;101105.20;1836330;77;21198;-65
2021/03/11 06:27:46;;;;;;;28.53;14.40;;;;;;;4.80;34.03;101106.91;1834011;76;21186;-66
2021/03/11 06:30:34;;;;;;;21.05;12.23;;;;;;;4.63;33.13;101111.23;1837508;76;21158;-66
2021/03/11 06:33:05;;;;;;;26.87;16.02;;;;;;;4.37;33.16;101110.71;1819561;76;21147;-68
2021/03/11 06:35:34;;;;;;;31.85;13.90;;;;;;;4.12;33.43;101116.69;1831356;76;21506;-67
2021/03/11 06:38:01;;;;;;;32.45;15.88;;;;;;;4.17;33.54;101120.17;1844452;75;21554;-67
2021/03/11 06:40:32;;;;;;;25.32;12.80;;;;;;;4.36;34.41;101116.77;1857849;75;21803;-67
2021/03/11 06:43:08;;;;;;;22.60;12.13;;;;;;;4.70;33.97;101123.42;1878988;75;21138;-67
2021/03/11 06:45:37;;;;;;;22.77;11.88;;;;;;;4.97;33.67;101112.59;1879011;75;21631;-67
2021/03/11 06:48:25;;;;;;;33.73;11.15;;;;;;;5.35;32.51;101122.23;1885860;75;21364;-68
2021/03/11 06:50:57;;;;;;;23.32;10.38;;;;;;;5.44;31.79;101115.25;1853694;76;21146;-67
2021/03/11 06:53:24;;;;;;;20.23;12.00;;;;;;;5.23;31.82;101118.73;1854498;73;21977;-70
2021/03/11 06:55:51;;;;;;;19.52;10.85;;;;;;;5.21;32.32;101120.47;1836188;76;21086;-71
2021/03/11 06:58:24;;;;;;;18.98;11.30;;;;;;;5.19;32.31;101126.13;1836803;76;21161;-71
2021/03/11 07:01:08;;;;;;;26.85;11.85;;;;;;;5.04;32.48;101124.38;1848638;76;21356;-73
2021/03/11 07:03:46;;;;;;;26.65;14.68;;;;;;;5.31;32.84;101125.70;1847842;76;21159;-72
2021/03/11 07:06:33;;;;;;;28.40;14.98;;;;;;;5.61;32.17;101128.74;1838093;76;21142;-72
2021/03/11 07:09:07;;;;;;;31.82;14.25;;;;;;;5.90;32.21;101126.10;1823172;75;21258;-67
2021/03/11 07:11:34;;;;;;;22.85;12.53;;;;;;;6.17;32.64;101126.95;1779800;78;21254;-67
2021/03/11 07:14:03;;;;;;;24.95;12.40;;;;;;;6.48;31.11;101124.63;1756322;79;22345;-67
2021/03/11 07:16:35;;;;;;;24.67;12.03;;;;;;;6.77;30.94;101130.19;1756990;78;21219;-67
2021/03/11 07:19:17;;;;;;;17.48;10.18;;;;;;;6.73;30.85;101134.55;1824330;77;21265;-66
2021/03/11 07:21:51;;;;;;;21.87;11.20;;;;;;;6.87;29.96;101127.93;1776221;78;21178;-67
2021/03/11 07:24:36;;;;;;;19.12;11.05;;;;;;;6.76;30.79;101127.12;1767782;77;21163;-73
2021/03/11 07:27:07;;;;;;;17.37;10.63;;;;;;;6.88;29.48;101128.37;1806305;75;21596;-73
2021/03/11 07:29:35;;;;;;;17.62;10.40;;;;;;;6.96;30.38;101119.60;1787431;75;21219;-72
2021/03/11 07:32:07;;;;;;;21.75;11.80;;;;;;;6.94;29.49;101123.08;1773645;78;21188;-71
2021/03/11 07:34:36;;;;;;;16.05;9.73;;;;;;;6.97;30.14;101123.95;1782282;78;21179;-72
2021/03/11 07:37:04;;;;;;;18.73;10.25;;;;;;;7.28;28.88;101121.55;1801944;77;21200;-72
2021/03/11 07:39:40;;;;;;;15.88;8.58;;;;;;;7.59;28.77;101122.59;1776017;76;21272;-68
2021/03/11 07:42:08;;;;;;;12.50;7.97;;;;;;;7.60;27.36;101125.66;1770555;79;21235;-67
2021/03/11 07:44:37;;;;;;;14.25;9.05;;;;;;;7.01;27.37;101130.91;1801786;77;21669;-67
2021/03/11 07:47:07;;;;;;;15.10;8.90;;;;;;;6.76;27.93;101129.73;1807923;77;21201;-68
2021/03/11 07:49:35;;;;;;;14.45;8.65;;;;;;;6.76;27.93;101129.73;1807995;78;21672;-68
2021/03/11 07:52:04;;;;;;;14.50;8.23;;;;;;;6.60;29.02;101134.62;1804542;78;21264;-69
2021/03/11 07:54:33;;;;;;;15.05;8.65;;;;;;;6.41;30.09;101139.06;1744935;77;21155;-70
2021/03/11 07:57:02;;;;;;;26.42;9.63;;;;;;;6.58;29.57;101135.06;1783314;77;21186;-72
2021/03/11 07:59:30;;;;;;;19.25;9.23;;;;;;;7.24;29.64;101126.83;1794660;78;21630;-70
2021/03/11 08:02:06;;;;;;;24.82;8.45;;;;;;;6.96;27.33;101135.31;1782416;76;21206;-72
2021/03/11 08:04:35;;;;;;;24.23;10.03;;;;;;;6.50;28.23;101126.81;1798733;78;21241;-71
2021/03/11 08:07:22;;;;;;;20.37;10.23;;;;;;;6.51;29.34;101133.80;1785933;77;21230;-71
2021/03/11 08:09:55;;;;;;;19.75;8.68;;;;;;;6.75;28.72;101128.02;1756882;78;21653;-67
2021/03/11 08:12:37;;;;;;;17.45;9.55;;;;;;;6.81;27.84;101120.55;1774605;77;21126;-68
2021/03/11 08:15:20;;;;;;;16.48;10.85;;;;;;;6.65;28.37;101118.48;1722691;80;21677;-69
2021/03/11 08:17:49;;;;;;;20.12;10.98;;;;;;;6.96;28.02;101123.08;1722493;80;21453;-70
2021/03/11 08:20:30;;;;;;;22.82;9.48;;;;;;;7.17;28.58;101115.52;1732788;80;21266;-68
2021/03/11 08:23:01;;;;;;;20.03;10.00;;;;;;;7.39;28.15;101116.69;1736433;77;21213;-70
2021/03/11 08:25:37;;;;;;;18.48;10.00;;;;;;;7.61;29.07;101110.34;1805846;76;21226;-71
2021/03/11 08:28:15;;;;;;;21.50;10.08;;;;;;;8.08;27.98;101114.26;1865218;75;21125;-70
2021/03/11 08:30:50;;;;;;;15.08;7.70;;;;;;;8.36;26.46;101106.06;1858847;75;22291;-71
2021/03/11 08:33:29;;;;;;;20.85;8.60;;;;;;;8.31;25.76;101100.02;1874051;75;21206;-70
2021/03/11 08:36:00;;;;;;;23.07;9.30;;;;;;;8.30;25.36;101104.81;1874439;75;26667;-71
2021/03/11 08:38:36;;;;;;;15.18;8.13;;;;;;;8.05;26.80;101106.44;1821309;76;21234;-66
2021/03/11 08:41:11;;;;;;;13.72;8.30;;;;;;;8.28;25.18;101101.34;1722006;81;21278;-68
2021/03/11 08:43:45;;;;;;;22.70;9.03;;;;;;;7.65;25.86;101106.82;1737494;79;22310;-67
2021/03/11 08:46:20;;;;;;;13.70;8.33;;;;;;;7.24;26.97;101097.55;1788650;78;21240;-69
2021/03/11 08:48:58;;;;;;;11.95;7.28;;;;;;;7.23;26.26;101089.73;1767951;79;21221;-67
2021/03/11 08:51:33;;;;;;;17.02;9.00;;;;;;;7.28;26.64;101085.31;1780335;78;21182;-68
2021/03/11 08:54:06;;;;;;;17.35;8.93;;;;;;;7.33;26.95;101094.00;1757657;75;21218;-70
2021/03/11 08:56:36;;;;;;;13.62;7.65;;;;;;;7.39;26.63;101086.09;1789998;77;21195;-70
2021/03/11 08:59:06;;;;;;;12.33;7.60;;;;;;;7.46;26.68;101102.64;1770237;77;21189;-69
2021/03/11 09:01:53;;;;;;;14.55;8.50;;;;;;;7.22;26.29;101091.45;1763968;79;21194;-70
2021/03/11 09:04:35;;;;;;;19.27;8.88;;;;;;;6.52;26.80;101082.33;1777422;77;21862;-69
2021/03/11 09:07:14;;;;;;;15.88;7.53;;;;;;;6.70;27.66;101084.84;1784660;78;21901;-71
2021/03/11 09:09:51;;;;;;;18.65;8.40;;;;;;;6.97;26.08;101099.06;1732049;78;22280;-73
2021/03/11 09:12:35;;;;;;;13.75;7.22;;;;;;;6.84;26.31;101083.89;1737959;80;21652;-72
2021/03/11 09:15:10;;;;;;;11.65;7.78;;;;;;;6.76;26.09;101083.05;1755207;80;24725;-71
2021/03/11 09:17:41;;;;;;;20.12;8.50;;;;;;;6.70;25.78;101089.22;1748739;80;21246;-71
2021/03/11 09:20:29;;;;;;;16.15;7.95;;;;;;;6.28;26.57;101089.83;1691818;82;22339;-71
2021/03/11 09:23:04;;;;;;;13.35;7.55;;;;;;;6.19;26.73;101094.69;1732946;79;22061;-72
2021/03/11 09:25:35;;;;;;;11.80;7.58;;;;;;;6.09;26.66;101091.20;1754440;78;22192;-68
2021/03/11 09:28:06;;;;;;;;;;;;;;;5.90;27.70;101096.03;1735611;79;21275;-67
2021/03/11 09:30:37;;;;;;;10.30;6.70;;;;;;;6.15;27.18;101096.01;1717104;80;20298;-68
2021/03/11 09:33:14;;;;;;;13.88;7.25;;;;;;;6.03;27.20;101100.40;1699017;82;21283;-68
2021/03/11 09:35:42;;;;;;;14.60;7.85;;;;;;;6.00;27.48;101080.77;1721845;82;21374;-68
2021/03/11 09:38:12;;;;;;;9.50;5.90;;;;;;;5.88;27.91;101080.34;1727604;78;21221;-69
2021/03/11 09:40:42;;;;;;;14.28;7.92;;;;;;;6.14;27.56;101091.63;1744817;79;21237;-72
2021/03/11 09:43:20;;;;;;;12.15;7.33;;;;;;;6.05;27.91;101080.76;1777015;78;21233;-70
2021/03/11 09:45:59;;;;;;;14.38;6.55;;;;;;;6.26;27.92;101087.69;1786486;77;21760;-71
2021/03/11 09:48:32;;;;;;;11.45;7.30;;;;;;;6.42;28.07;101091.97;1821934;77;21192;-71
2021/03/11 09:51:16;;;;;;;16.70;7.50;;;;;;;6.26;28.10;101080.70;1818692;77;21169;-72
2021/03/11 09:54:04;;;;;;;13.98;6.90;;;;;;;6.43;28.03;101092.84;1807505;75;22379;-67
2021/03/11 09:56:35;;;;;;;20.60;7.28;;;;;;;6.34;27.85;101078.04;1744404;80;21226;-67
2021/03/11 09:59:05;;;;;;;11.22;7.10;;;;;;;6.46;27.90;101083.20;1742423;80;21087;-67
2021/03/11 10:01:35;;;;;;;12.78;7.70;;;;;;;6.08;28.19;101086.86;1752433;80;21240;-68
2021/03/11 10:04:23;;;;;;;19.80;6.05;;;;;;;6.04;28.34;101082.52;1781462;78;21210;-67
2021/03/11 10:07:00;;;;;;;17.40;7.50;;;;;;;6.08;28.28;101088.61;1779766;79;21150;-67
2021/03/11 10:09:43;;;;;;;12.45;5.42;;;;;;;5.80;28.00;101070.80;1682835;77;21211;-71
2021/03/11 10:12:12;;;;;;;9.88;5.67;;;;;;;5.17;27.89;101076.94;1697411;80;21364;-72
2021/03/11 10:14:42;;;;;;;20.08;8.18;;;;;;;4.69;28.61;101081.22;1750134;79;21417;-71
2021/03/11 10:17:19;;;;;;;23.52;6.75;;;;;;;4.84;32.66;101069.52;1747713;79;21235;-72
2021/03/11 10:19:49;;;;;;;10.63;7.05;;;;;;;5.59;31.21;101069.97;1748535;79;21697;-71
2021/03/11 10:22:19;;;;;;;15.30;7.42;;;;;;;6.26;28.24;101065.45;1772457;79;21265;-72
2021/03/11 10:24:52;;;;;;;20.77;6.37;;;;;;;6.40;27.99;101070.63;1730573;80;21317;-71
2021/03/11 10:27:25;;;;;;;17.25;7.50;;;;;;;6.46;27.52;101063.58;1746013;79;22298;-73
2021/03/11 10:30:08;;;;;;;14.80;6.75;;;;;;;6.37;27.23;101067.55;1748753;79;21680;-72
2021/03/11 10:32:38;;;;;;;14.73;6.62;;;;;;;6.42;27.49;101059.27;1746259;78;21189;-71
2021/03/11 10:35:08;;;;;;;;;;;;;;;6.57;27.56;101057.44;1757077;79;21196;-70
2021/03/11 10:37:41;;;;;;;12.60;6.67;;;;;;;6.78;27.71;101057.30;1752186;79;20267;-71
2021/03/11 10:40:13;;;;;;;7.60;4.97;;;;;;;6.94;28.65;101048.45;1738380;79;21359;-71
2021/03/11 10:42:50;;;;;;;16.02;7.62;;;;;;;6.92;26.80;101051.55;1739522;79;21724;-71
2021/03/11 10:45:28;;;;;;;16.70;7.28;;;;;;;6.97;26.88;101050.62;1737612;79;21213;-70
2021/03/11 10:48:06;;;;;;;16.15;7.50;;;;;;;7.03;27.38;101040.11;1728823;79;21801;-71
2021/03/11 10:50:45;;;;;;;13.78;6.42;;;;;;;7.35;26.46;101038.07;1742503;80;21492;-72
2021/03/11 10:53:15;;;;;;;12.68;6.58;;;;;;;7.03;25.95;101040.11;1746230;80;21746;-71
2021/03/11 10:56:01;;;;;;;12.95;6.42;;;;;;;6.80;26.02;101031.98;1732325;80;21214;-67
2021/03/11 10:58:28;;;;;;;10.28;6.62;;;;;;;6.53;27.00;101032.16;1777123;78;21201;-67
2021/03/11 11:01:13;;;;;;;10.95;6.83;;;;;;;6.42;27.30;101033.10;1770161;78;21209;-67
2021/03/11 11:03:42;;;;;;;14.65;7.83;;;;;;;7.00;27.65;101027.05;1720402;80;21278;-68
2021/03/11 11:06:10;;;;;;;15.80;8.20;;;;;;;7.40;27.10;101021.44;1719153;81;21296;-66
2021/03/11 11:08:46;;;;;;;16.60;7.67;;;;;;;7.21;26.71;101019.00;1736520;80;21710;-70
2021/03/11 11:11:16;;;;;;;13.18;6.80;;;;;;;7.25;27.14;101008.92;1719135;81;21222;-71
2021/03/11 11:13:45;;;;;;;19.32;8.28;;;;;;;7.23;26.48;101004.13;1757634;80;21197;-71
2021/03/11 11:16:13;;;;;;;14.70;7.62;;;;;;;6.97;27.06;100996.52;1737361;80;21233;-70
2021/03/11 11:18:41;;;;;;;14.53;8.25;;;;;;;6.57;27.71;101011.64;1736930;80;21365;-71
2021/03/11 11:21:09;;;;;;;19.48;8.98;;;;;;;6.27;28.37;100997.86;1732508;80;21177;-70
2021/03/11 11:23:37;;;;;;;13.03;7.50;;;;;;;6.05;28.74;100992.75;1737691;81;21602;-71
2021/03/11 11:26:05;;;;;;;11.12;7.12;;;;;;;6.00;28.73;100980.55;1730292;80;21257;-71
2021/03/11 11:28:34;;;;;;;13.50;7.70;;;;;;;6.05;29.06;100987.52;1735936;80;21202;-72
2021/03/11 11:31:05;;;;;;;15.63;8.45;;;;;;;6.13;28.67;100991.83;1732261;81;22154;-72
2021/03/11 11:33:33;;;;;;;13.68;8.35;;;;;;;5.98;29.61;100980.99;1737658;81;21181;-72
2021/03/11 11:36:01;;;;;;;14.43;8.20;;;;;;;6.06;29.05;100984.01;1695588;83;21678;-71